Time;durP1;ratioP1;P1;durP2;ratioP2;P2;SDS_P1;SDS_P2;PMS_P1;PMS_P2;Temp;Humidity;BMP_temperature;BMP_pressure;BME280_temperature;BME280_humidity;BME280_pressure;Samples;Min_cycle;Max_cycle;Signal;HPM_P1;HPM_P2
2023/08/09 00:02:22;;;;;;;4.73;1.73;;;11.00;99.90;;;;;;5040454;28;20319;-79
2023/08/09 00:04:49;;;;;;;4.90;1.60;;;11.00;99.90;;;;;;5048287;28;20313;-79
2023/08/09 00:07:17;;;;;;;7.83;1.63;;;11.00;99.90;;;;;;5045441;28;20784;-79
2023/08/09 00:09:44;;;;;;;7.40;1.80;;;11.00;99.90;;;;;;5046469;28;20225;-79
2023/08/09 00:12:11;;;;;;;3.90;1.40;;;11.00;99.90;;;;;;5044438;28;20261;-80
2023/08/09 00:14:38;;;;;;;4.67;1.90;;;11.00;99.90;;;;;;5045721;28;20235;-79
2023/08/09 00:17:05;;;;;;;8.73;1.87;;;11.00;99.90;;;;;;5043576;28;20224;-79
2023/08/09 00:19:32;;;;;;;5.17;1.67;;;11.00;99.90;;;;;;5042325;28;20805;-79
2023/08/09 00:21:59;;;;;;;6.07;1.77;;;11.00;99.90;;;;;;5039576;28;20229;-79
2023/08/09 00:24:27;;;;;;;5.97;1.67;;;11.00;99.90;;;;;;5043952;28;20226;-78
2023/08/09 00:26:54;;;;;;;5.37;1.57;;;11.00;99.90;;;;;;5043227;28;20224;-79
2023/08/09 00:29:22;;;;;;;4.87;1.30;;;11.00;99.90;;;;;;5040109;28;20616;-79
2023/08/09 00:31:49;;;;;;;5.43;1.60;;;11.00;99.90;;;;;;5045520;28;20730;-80
2023/08/09 00:34:16;;;;;;;4.30;1.57;;;10.90;99.90;;;;;;5043247;28;20232;-79
2023/08/09 00:36:43;;;;;;;7.40;1.73;;;10.90;99.90;;;;;;5038952;28;20229;-79
2023/08/09 00:39:10;;;;;;;5.07;1.40;;;10.80;99.90;;;;;;5044801;28;20419;-80
2023/08/09 00:41:38;;;;;;;8.03;1.77;;;10.80;99.90;;;;;;5042109;28;20295;-79
2023/08/09 00:44:06;;;;;;;6.43;2.30;;;10.80;99.90;;;;;;5049392;28;20219;-79
2023/08/09 00:46:33;;;;;;;6.90;1.90;;;10.80;99.90;;;;;;5040415;28;20837;-80
2023/08/09 00:49:00;;;;;;;9.97;2.07;;;10.70;99.90;;;;;;5038408;28;20626;-79
2023/08/09 00:51:27;;;;;;;6.33;1.87;;;10.70;99.90;;;;;;5042081;28;20274;-79
2023/08/09 00:53:54;;;;;;;5.67;1.47;;;10.70;99.90;;;;;;5042640;28;20224;-79
2023/08/09 00:56:21;;;;;;;4.73;1.33;;;10.80;99.90;;;;;;5043257;28;20235;-79
2023/08/09 00:58:50;;;;;;;4.27;1.50;;;10.80;99.90;;;;;;5043399;28;20718;-79
2023/08/09 01:01:16;;;;;;;6.57;1.73;;;10.90;99.90;;;;;;5040345;28;20247;-79
2023/08/09 01:03:44;;;;;;;5.23;1.70;;;10.90;99.90;;;;;;5043711;28;20238;-79
2023/08/09 01:06:18;;;;;;;5.30;1.40;;;11.00;99.90;;;;;;5039968;28;20756;-80
2023/08/09 01:08:50;;;;;;;4.53;1.70;;;11.00;99.90;;;;;;5052191;28;20229;-80
2023/08/09 01:11:25;;;;;;;9.67;1.50;;;11.10;99.90;;;;;;5043521;28;20308;-80
2023/08/09 01:13:54;;;;;;;8.50;2.00;;;11.00;99.90;;;;;;5032452;28;20547;-79
2023/08/09 01:16:22;;;;;;;5.93;1.70;;;11.10;99.90;;;;;;5041792;28;20696;-80
2023/08/09 01:18:52;;;;;;;5.23;1.50;;;11.00;99.90;;;;;;5041227;28;20317;-80
2023/08/09 01:21:22;;;;;;;5.47;1.73;;;11.00;99.90;;;;;;5040289;28;20236;-80
2023/08/09 01:23:50;;;;;;;5.67;1.53;;;11.00;99.90;;;;;;5039688;28;20773;-80
2023/08/09 01:26:17;;;;;;;6.47;1.67;;;11.00;99.90;;;;;;5040552;28;20294;-79
2023/08/09 01:28:44;;;;;;;7.17;1.87;;;11.00;99.90;;;;;;5042733;28;20607;-79
2023/08/09 01:31:11;;;;;;;7.47;1.73;;;11.10;99.90;;;;;;5041455;28;20239;-79
2023/08/09 01:33:38;;;;;;;5.87;1.60;;;11.10;99.90;;;;;;5041830;28;20314;-80
2023/08/09 01:36:12;;;;;;;3.53;1.40;;;11.10;99.90;;;;;;5040100;28;20875;-79
2023/08/09 01:38:45;;;;;;;4.20;1.27;;;11.10;99.90;;;;;;5040418;28;20241;-79
2023/08/09 01:41:14;;;;;;;4.77;1.80;;;11.10;99.90;;;;;;5038079;28;20232;-79
2023/08/09 01:43:41;;;;;;;5.63;1.43;;;11.10;99.90;;;;;;5037501;28;20909;-79
2023/08/09 01:46:08;;;;;;;6.73;1.57;;;11.00;99.90;;;;;;5040894;28;20225;-80
2023/08/09 01:48:35;;;;;;;5.80;1.30;;;11.00;99.90;;;;;;5040525;28;20226;-80
2023/08/09 01:51:02;;;;;;;6.77;1.57;;;10.90;99.90;;;;;;5043246;28;20232;-80
2023/08/09 01:53:29;;;;;;;4.83;1.40;;;10.90;99.90;;;;;;5027381;28;20280;-80
2023/08/09 01:55:56;;;;;;;3.07;1.30;;;10.80;99.90;;;;;;5029947;28;20518;-80
2023/08/09 01:58:24;;;;;;;6.70;1.60;;;10.80;99.90;;;;;;5029847;28;20266;-81
2023/08/09 02:00:52;;;;;;;5.83;1.47;;;10.80;99.90;;;;;;5037238;28;20639;-80
2023/08/09 02:03:19;;;;;;;4.27;1.60;;;10.70;99.90;;;;;;5054417;28;20646;-81
2023/08/09 02:05:46;;;;;;;4.43;1.30;;;10.70;99.90;;;;;;5041182;28;20223;-80
2023/08/09 02:08:12;;;;;;;4.93;1.40;;;10.70;99.90;;;;;;5041127;28;20629;-80
2023/08/09 02:10:39;;;;;;;3.70;1.70;;;10.60;99.90;;;;;;5041190;28;20722;-80
2023/08/09 02:13:06;;;;;;;6.20;1.50;;;10.60;99.90;;;;;;5040512;28;20458;-81
2023/08/09 02:15:35;;;;;;;6.27;1.43;;;10.60;99.90;;;;;;5039940;28;20256;-81
2023/08/09 02:18:02;;;;;;;5.80;1.70;;;10.50;99.90;;;;;;5037974;28;20293;-80
2023/08/09 02:20:28;;;;;;;7.73;1.90;;;10.50;99.90;;;;;;5040142;28;20697;-81
2023/08/09 02:22:55;;;;;;;4.80;1.80;;;10.50;99.90;;;;;;5037955;28;20233;-80
2023/08/09 02:25:22;;;;;;;7.03;1.60;;;10.50;99.90;;;;;;5041395;28;20253;-81
2023/08/09 02:27:49;;;;;;;6.40;1.47;;;10.50;99.90;;;;;;5054970;28;20243;-81
2023/08/09 02:30:16;;;;;;;5.37;1.67;;;10.50;99.90;;;;;;5038961;28;20302;-80
2023/08/09 02:32:44;;;;;;;8.00;1.60;;;10.50;99.90;;;;;;5037991;28;20222;-80
2023/08/09 02:35:11;;;;;;;5.27;1.60;;;10.50;99.90;;;;;;5040051;28;20290;-81
2023/08/09 02:37:38;;;;;;;4.17;1.40;;;10.50;99.90;;;;;;5038191;28;20291;-81
2023/08/09 02:40:06;;;;;;;5.83;1.60;;;10.50;99.90;;;;;;5035723;28;20255;-81
2023/08/09 02:42:33;;;;;;;2.77;1.30;;;10.60;99.90;;;;;;5042635;28;20234;-80
2023/08/09 02:45:00;;;;;;;6.20;1.50;;;10.60;99.90;;;;;;5038330;28;20224;-80
2023/08/09 02:47:27;;;;;;;4.43;1.30;;;10.60;99.90;;;;;;5041777;28;20233;-81
2023/08/09 02:49:56;;;;;;;4.83;1.50;;;10.60;99.90;;;;;;5037260;28;20671;-80
2023/08/09 02:52:23;;;;;;;3.67;1.33;;;10.60;99.90;;;;;;5038397;28;20220;-81
2023/08/09 02:54:51;;;;;;;5.30;1.60;;;10.60;99.90;;;;;;5039758;28;20252;-80
2023/08/09 02:57:18;;;;;;;3.83;1.23;;;10.70;99.90;;;;;;5035040;28;20215;-80
2023/08/09 02:59:45;;;;;;;5.03;1.50;;;10.70;99.90;;;;;;5037330;28;20232;-80
2023/08/09 03:02:13;;;;;;;7.13;1.77;;;10.70;99.90;;;;;;5038431;28;20414;-80
2023/08/09 03:04:40;;;;;;;5.27;1.27;;;10.70;99.90;;;;;;5037197;28;20307;-80
2023/08/09 03:07:09;;;;;;;4.57;1.60;;;10.60;99.90;;;;;;5038656;28;20237;-80
2023/08/09 03:09:38;;;;;;;3.80;1.50;;;10.60;99.90;;;;;;5038809;28;20234;-80
2023/08/09 03:12:05;;;;;;;5.70;1.90;;;10.60;99.90;;;;;;5038402;28;20301;-80
2023/08/09 03:14:33;;;;;;;5.47;1.80;;;10.60;99.90;;;;;;5033480;28;20598;-80
2023/08/09 03:17:00;;;;;;;4.87;1.70;;;10.60;99.90;;;;;;5039104;28;20224;-79
2023/08/09 03:19:26;;;;;;;5.83;1.97;;;10.50;99.90;;;;;;5038068;28;20245;-80
2023/08/09 03:21:53;;;;;;;5.63;1.87;;;10.50;99.90;;;;;;5043627;28;20319;-81
2023/08/09 03:24:22;;;;;;;3.40;1.70;;;10.50;99.90;;;;;;5041119;28;20275;-80
2023/08/09 03:26:49;;;;;;;4.07;1.73;;;10.50;99.90;;;;;;5041101;28;20745;-80
2023/08/09 03:29:18;;;;;;;3.27;1.80;;;10.50;99.90;;;;;;5042467;28;20659;-81
2023/08/09 03:31:45;;;;;;;8.37;2.33;;;10.40;99.90;;;;;;5038936;28;20220;-81
2023/08/09 03:34:14;;;;;;;8.77;1.83;;;10.40;99.90;;;;;;5044046;28;20313;-80
2023/08/09 03:36:41;;;;;;;5.00;1.73;;;10.40;99.90;;;;;;5042196;28;20311;-79
2023/08/09 03:39:08;;;;;;;4.73;1.63;;;10.40;99.90;;;;;;5040663;28;20259;-80
2023/08/09 03:41:36;;;;;;;10.03;2.10;;;10.40;99.90;;;;;;5036355;28;20275;-81
2023/08/09 03:44:03;;;;;;;3.37;1.67;;;10.40;99.90;;;;;;5040385;28;20271;-80
2023/08/09 03:46:30;;;;;;;7.30;2.00;;;10.40;99.90;;;;;;5029431;28;20266;-80
2023/08/09 03:48:56;;;;;;;5.03;1.87;;;10.40;99.90;;;;;;5024204;28;20228;-80
2023/08/09 03:51:25;;;;;;;6.67;2.03;;;10.40;99.90;;;;;;5019721;28;20315;-80
2023/08/09 03:53:51;;;;;;;6.20;2.03;;;10.40;99.90;;;;;;5037103;28;20276;-80
2023/08/09 03:56:18;;;;;;;5.43;1.70;;;10.40;99.90;;;;;;5042939;28;20760;-80
2023/08/09 03:58:46;;;;;;;7.67;2.07;;;10.40;99.90;;;;;;5043514;28;20598;-80
2023/08/09 04:01:13;;;;;;;4.40;2.33;;;10.50;99.90;;;;;;5044538;28;20247;-81
2023/08/09 04:03:40;;;;;;;6.33;2.20;;;10.50;99.90;;;;;;5049767;28;20228;-81
2023/08/09 04:06:07;;;;;;;6.40;1.77;;;10.50;99.90;;;;;;5043729;28;20246;-81
2023/08/09 04:08:34;;;;;;;6.37;2.67;;;10.50;99.90;;;;;;5043649;28;20767;-81
2023/08/09 04:11:01;;;;;;;4.47;2.00;;;10.60;99.90;;;;;;5043196;28;20783;-81
2023/08/09 04:13:28;;;;;;;8.97;2.30;;;10.60;99.90;;;;;;5044294;28;20219;-82
2023/08/09 04:15:56;;;;;;;5.77;2.27;;;10.70;99.90;;;;;;5047216;28;20228;-81
2023/08/09 04:18:23;;;;;;;5.97;2.13;;;10.70;99.90;;;;;;5040418;28;20613;-82
2023/08/09 04:20:51;;;;;;;5.37;2.17;;;10.70;99.90;;;;;;5043052;28;20320;-82
2023/08/09 04:23:21;;;;;;;6.50;2.10;;;10.70;99.90;;;;;;5029924;28;20251;-82
2023/08/09 04:25:48;;;;;;;5.37;2.00;;;10.80;99.90;;;;;;5041962;28;20226;-82
2023/08/09 04:28:15;;;;;;;4.70;1.97;;;10.70;99.90;;;;;;5040857;28;20315;-81
2023/08/09 04:30:42;;;;;;;4.20;2.17;;;10.80;99.90;;;;;;5043640;28;20231;-81
2023/08/09 04:33:12;;;;;;;6.53;2.10;;;10.80;99.90;;;;;;5044550;28;20216;-82
2023/08/09 04:35:39;;;;;;;8.20;2.27;;;10.70;99.90;;;;;;5036353;28;20227;-82
2023/08/09 04:38:06;;;;;;;5.40;1.97;;;10.70;99.90;;;;;;5039576;28;20354;-82
2023/08/09 04:40:34;;;;;;;6.00;2.30;;;10.70;99.90;;;;;;5042381;28;20687;-82
2023/08/09 04:43:01;;;;;;;9.20;2.67;;;10.70;99.90;;;;;;5044381;28;20677;-82
2023/08/09 04:45:28;;;;;;;6.00;2.00;;;10.70;99.90;;;;;;5043872;28;20224;-82
2023/08/09 04:47:56;;;;;;;5.67;2.00;;;10.70;99.90;;;;;;5041842;28;20222;-82
2023/08/09 04:50:25;;;;;;;4.93;1.80;;;10.70;99.90;;;;;;5040154;28;20228;-82
2023/08/09 04:52:52;;;;;;;5.87;1.60;;;10.80;99.90;;;;;;5045522;28;20225;-82
2023/08/09 04:55:19;;;;;;;6.07;1.90;;;10.80;99.90;;;;;;5042542;28;20221;-82
2023/08/09 04:57:47;;;;;;;6.30;2.10;;;10.90;99.90;;;;;;5044490;28;20542;-82
2023/08/09 05:00:15;;;;;;;3.77;1.60;;;10.90;99.90;;;;;;5039917;28;20259;-82
2023/08/09 05:02:42;;;;;;;4.57;1.70;;;11.00;99.90;;;;;;5042710;28;20232;-82
2023/08/09 05:05:10;;;;;;;7.10;2.30;;;11.10;99.90;;;;;;5042822;28;20250;-82
2023/08/09 05:07:39;;;;;;;6.17;1.60;;;11.10;99.90;;;;;;5063447;28;20319;-81
2023/08/09 05:10:07;;;;;;;5.10;1.57;;;11.20;99.90;;;;;;5037240;28;20219;-83
2023/08/09 05:12:34;;;;;;;7.60;1.73;;;11.30;99.90;;;;;;5019879;28;20230;-83
2023/08/09 05:15:01;;;;;;;3.60;1.57;;;11.30;99.90;;;;;;5028436;28;20237;-82
2023/08/09 05:17:28;;;;;;;3.97;1.80;;;11.30;99.90;;;;;;5035004;28;20704;-82
2023/08/09 05:19:55;;;;;;;5.50;1.60;;;11.40;99.90;;;;;;5041802;28;20651;-82
2023/08/09 05:22:22;;;;;;;4.37;1.73;;;11.50;99.90;;;;;;5041853;28;20219;-81
2023/08/09 05:24:50;;;;;;;5.33;1.90;;;11.60;99.90;;;;;;5043902;28;20222;-82
2023/08/09 05:27:17;;;;;;;3.50;1.60;;;11.70;99.90;;;;;;5043244;28;20890;-82
2023/08/09 05:29:44;;;;;;;4.90;1.77;;;11.80;99.90;;;;;;5041281;28;20232;-82
2023/08/09 05:32:11;;;;;;;7.40;1.80;;;11.80;99.90;;;;;;5041510;28;20241;-82
2023/08/09 05:34:39;;;;;;;6.47;2.00;;;11.90;99.90;;;;;;5034422;28;20222;-82
2023/08/09 05:37:05;;;;;;;6.47;1.70;;;12.00;99.90;;;;;;5034537;28;20303;-82
2023/08/09 05:39:32;;;;;;;6.70;1.87;;;12.10;99.90;;;;;;5036540;28;20230;-82
2023/08/09 05:42:01;;;;;;;3.03;1.60;;;12.10;99.90;;;;;;5043802;28;20314;-83
2023/08/09 05:44:28;;;;;;;4.70;1.50;;;12.20;99.90;;;;;;5039152;28;20632;-83
2023/08/09 05:46:55;;;;;;;6.67;1.63;;;12.30;99.90;;;;;;5041620;28;20672;-83
2023/08/09 05:49:22;;;;;;;4.23;1.57;;;12.30;99.90;;;;;;5037748;28;20220;-82
2023/08/09 05:51:49;;;;;;;3.83;1.60;;;12.30;99.90;;;;;;5043350;28;20615;-81
2023/08/09 05:54:16;;;;;;;5.40;1.47;;;12.40;99.90;;;;;;5037326;28;20741;-81
2023/08/09 05:56:43;;;;;;;5.73;2.03;;;12.40;99.90;;;;;;5042697;28;20228;-82
2023/08/09 05:59:11;;;;;;;5.77;1.47;;;12.40;99.90;;;;;;5041701;28;20227;-82
2023/08/09 06:01:38;;;;;;;2.73;1.23;;;12.40;99.90;;;;;;5023534;28;20230;-83
2023/08/09 06:04:05;;;;;;;2.97;1.63;;;12.40;99.90;;;;;;5037819;28;20234;-82
2023/08/09 06:06:32;;;;;;;4.67;1.63;;;12.50;99.90;;;;;;5045537;28;20228;-79
2023/08/09 06:08:58;;;;;;;5.37;1.77;;;12.50;99.90;;;;;;5042805;28;20230;-81
2023/08/09 06:11:25;;;;;;;5.30;1.73;;;12.60;99.90;;;;;;5040866;28;20624;-80
2023/08/09 06:13:52;;;;;;;3.80;1.47;;;12.60;99.90;;;;;;5044550;28;20240;-81
2023/08/09 06:16:20;;;;;;;4.77;1.47;;;12.70;99.90;;;;;;5040493;28;20599;-80
2023/08/09 06:18:46;;;;;;;5.17;1.53;;;12.80;99.90;;;;;;5036725;28;20705;-79
2023/08/09 06:21:13;;;;;;;8.33;1.93;;;12.80;99.90;;;;;;5038450;28;20230;-81
2023/08/09 06:23:40;;;;;;;11.63;1.60;;;12.90;99.90;;;;;;5042767;28;20235;-81
2023/08/09 06:26:07;;;;;;;4.13;1.40;;;13.00;99.90;;;;;;5043285;28;20221;-80
2023/08/09 06:28:34;;;;;;;6.03;1.63;;;13.00;99.90;;;;;;5042660;28;20230;-80
2023/08/09 06:31:00;;;;;;;7.50;1.87;;;13.00;99.90;;;;;;5043563;28;20224;-83
2023/08/09 06:33:30;;;;;;;9.63;2.00;;;13.10;99.90;;;;;;5044086;28;20236;-80
2023/08/09 06:35:56;;;;;;;6.50;1.40;;;13.20;99.90;;;;;;5041376;28;20285;-79
2023/08/09 06:38:23;;;;;;;4.43;1.53;;;13.20;99.90;;;;;;5035340;28;21125;-80
2023/08/09 06:40:50;;;;;;;6.50;1.67;;;13.30;99.90;;;;;;5032261;28;20231;-79
2023/08/09 06:43:16;;;;;;;6.03;1.57;;;13.40;99.90;;;;;;5041766;28;20711;-80
2023/08/09 06:45:45;;;;;;;4.53;1.40;;;13.50;99.90;;;;;;5040590;28;20302;-81
2023/08/09 06:48:12;;;;;;;6.77;1.57;;;13.60;99.90;;;;;;5035173;28;20228;-79
2023/08/09 06:50:40;;;;;;;8.40;1.97;;;13.60;99.90;;;;;;5054550;28;20223;-80
2023/08/09 06:53:07;;;;;;;5.07;1.87;;;13.70;99.90;;;;;;5036068;28;20231;-81
2023/08/09 06:55:34;;;;;;;3.70;1.47;;;13.70;99.90;;;;;;5039533;28;20231;-80
2023/08/09 06:58:01;;;;;;;6.83;1.57;;;13.80;99.90;;;;;;5054850;28;20592;-80
2023/08/09 07:00:28;;;;;;;4.77;2.10;;;13.80;99.90;;;;;;5044348;28;20228;-79
2023/08/09 07:02:54;;;;;;;4.73;1.57;;;13.70;99.90;;;;;;5037180;28;20485;-79
2023/08/09 07:05:21;;;;;;;6.23;1.33;;;13.80;99.90;;;;;;5038460;28;20236;-80
2023/08/09 07:07:52;;;;;;;4.47;1.50;;;13.70;99.90;;;;;;5039528;28;20859;-80
2023/08/09 07:10:19;;;;;;;6.23;1.50;;;13.70;99.90;;;;;;5039850;28;20574;-80
2023/08/09 07:12:45;;;;;;;5.50;1.70;;;13.70;99.90;;;;;;5036300;28;20215;-80
2023/08/09 07:15:12;;;;;;;4.53;1.80;;;13.70;99.90;;;;;;5039341;28;20238;-80
2023/08/09 07:17:40;;;;;;;4.87;1.67;;;13.70;99.90;;;;;;5040492;28;20227;-79
2023/08/09 07:20:09;;;;;;;4.40;1.50;;;13.70;99.90;;;;;;5037941;28;20230;-79
2023/08/09 07:22:35;;;;;;;5.50;1.53;;;13.80;99.90;;;;;;5042477;28;20712;-79
2023/08/09 07:25:04;;;;;;;4.53;1.57;;;14.00;99.90;;;;;;5041672;28;20226;-80
2023/08/09 07:27:32;;;;;;;5.13;1.60;;;14.30;99.90;;;;;;5041263;28;20220;-79
2023/08/09 07:29:59;;;;;;;5.03;1.80;;;14.70;99.90;;;;;;5043356;28;20810;-79
2023/08/09 07:32:25;;;;;;;5.40;1.77;;;15.30;99.90;;;;;;5039931;28;20238;-80
2023/08/09 07:34:52;;;;;;;7.43;1.50;;;15.90;99.90;;;;;;5041603;28;20231;-80
2023/08/09 07:37:19;;;;;;;6.83;1.40;;;16.60;99.90;;;;;;5040418;28;20221;-79
2023/08/09 07:39:46;;;;;;;5.20;1.30;;;17.10;99.90;;;;;;5037198;28;20220;-81
2023/08/09 07:42:14;;;;;;;3.43;1.23;;;17.40;99.90;;;;;;5038247;28;20232;-79
2023/08/09 07:44:41;;;;;;;4.93;1.40;;;17.60;99.90;;;;;;5043687;28;20711;-79
2023/08/09 07:47:08;;;;;;;4.93;1.43;;;17.80;99.90;;;;;;5047082;28;20219;-79
2023/08/09 07:49:34;;;;;;;8.37;1.97;;;18.00;99.90;;;;;;5040356;28;20282;-80
2023/08/09 07:52:01;;;;;;;4.97;1.40;;;18.20;99.90;;;;;;5040667;28;20546;-81
2023/08/09 07:54:28;;;;;;;4.17;1.30;;;18.30;99.90;;;;;;5040542;28;20243;-80
2023/08/09 07:56:55;;;;;;;4.00;1.40;;;18.50;99.90;;;;;;5042018;28;20585;-79
2023/08/09 07:59:22;;;;;;;4.43;1.33;;;18.70;99.90;;;;;;5042836;28;20239;-78
2023/08/09 08:01:49;;;;;;;5.53;1.40;;;18.80;99.90;;;;;;5040545;28;20230;-78
2023/08/09 08:04:16;;;;;;;6.80;1.70;;;19.10;99.90;;;;;;5044257;28;20234;-78
2023/08/09 08:06:42;;;;;;;7.43;1.50;;;19.20;99.90;;;;;;5042220;28;20228;-78
2023/08/09 08:09:12;;;;;;;4.47;1.80;;;19.40;99.90;;;;;;5044061;28;20231;-78
2023/08/09 08:11:39;;;;;;;8.33;1.50;;;19.60;99.90;;;;;;5044600;28;20233;-78
2023/08/09 08:14:06;;;;;;;4.23;1.40;;;19.80;99.90;;;;;;5041616;28;20594;-78
2023/08/09 08:16:34;;;;;;;3.07;1.40;;;20.00;99.90;;;;;;5044355;28;20480;-78
2023/08/09 08:19:01;;;;;;;4.47;1.50;;;20.00;99.90;;;;;;5045145;28;20743;-78
2023/08/09 08:21:28;;;;;;;4.32;1.50;;;20.00;99.90;;;;;;5043743;28;20224;-78
2023/08/09 08:23:56;;;;;;;3.77;1.20;;;20.00;99.90;;;;;;5046371;28;20219;-78
2023/08/09 08:26:23;;;;;;;5.30;1.50;;;19.90;99.90;;;;;;5044957;28;20331;-78
2023/08/09 08:28:49;;;;;;;5.80;1.60;;;19.80;99.90;;;;;;5043729;28;20233;-78
2023/08/09 08:31:19;;;;;;;7.67;1.80;;;19.80;99.90;;;;;;5043688;28;20216;-78
2023/08/09 08:33:49;;;;;;;6.95;1.63;;;19.70;99.90;;;;;;5054640;28;20247;-78
2023/08/09 08:36:16;;;;;;;5.50;1.67;;;19.80;99.90;;;;;;5039319;28;20588;-78
2023/08/09 08:38:43;;;;;;;3.78;1.40;;;19.90;99.90;;;;;;5058449;28;20232;-78
2023/08/09 08:41:10;;;;;;;2.58;1.38;;;20.10;99.90;;;;;;5040818;28;20224;-78
2023/08/09 08:43:37;;;;;;;4.95;1.33;;;20.50;99.90;;;;;;5043868;28;20221;-78
2023/08/09 08:46:05;;;;;;;3.17;1.33;;;20.90;99.90;;;;;;5040447;28;20232;-78
2023/08/09 08:48:33;;;;;;;3.45;1.30;;;21.30;99.90;;;;;;5044680;28;20224;-79
2023/08/09 08:51:03;;;;;;;3.53;1.35;;;21.60;99.90;;;;;;5045503;28;20224;-78
2023/08/09 08:53:33;;;;;;;3.42;1.20;;;21.80;99.90;;;;;;5032772;28;20212;-78
2023/08/09 08:56:00;;;;;;;5.80;1.50;;;22.00;99.90;;;;;;5043809;28;20216;-79
2023/08/09 08:58:26;;;;;;;6.10;1.63;;;22.00;99.90;;;;;;5038311;28;20235;-78
2023/08/09 09:00:54;;;;;;;3.80;1.23;;;21.90;99.90;;;;;;5042553;28;20235;-78
2023/08/09 09:03:20;;;;;;;3.70;1.33;;;21.90;99.90;;;;;;5040766;28;20558;-78
2023/08/09 09:05:47;;;;;;;7.18;1.55;;;21.90;99.90;;;;;;5040533;28;20313;-78
2023/08/09 09:08:15;;;;;;;5.32;1.27;;;21.80;99.90;;;;;;5045596;28;20228;-78
2023/08/09 09:10:45;;;;;;;3.88;1.25;;;21.60;99.90;;;;;;5040783;28;20217;-78
2023/08/09 09:13:23;;;;;;;4.93;1.50;;;21.40;99.90;;;;;;5042891;28;20232;-78
2023/08/09 09:15:52;;;;;;;3.70;1.60;;;21.10;99.90;;;;;;5040150;28;20367;-78
2023/08/09 09:18:20;;;;;;;5.43;1.40;;;20.80;99.90;;;;;;5043447;28;20224;-78
2023/08/09 09:20:47;;;;;;;5.87;1.43;;;20.40;99.90;;;;;;5057450;28;20373;-78
2023/08/09 09:23:27;;;;;;;7.00;1.53;;;20.10;99.90;;;;;;5043582;28;20572;-78
2023/08/09 09:26:05;;;;;;;5.07;1.67;;;19.70;99.90;;;;;;5043501;28;20714;-78
2023/08/09 09:28:38;;;;;;;4.80;1.33;;;19.60;99.90;;;;;;5042590;28;20238;-78
2023/08/09 09:31:05;;;;;;;5.47;1.60;;;19.60;99.90;;;;;;5044425;28;20710;-79
2023/08/09 09:33:34;;;;;;;6.35;1.40;;;19.90;99.90;;;;;;5043771;28;20606;-78
2023/08/09 09:36:01;;;;;;;7.07;1.92;;;20.20;99.90;;;;;;5041891;28;20274;-79
2023/08/09 09:38:29;;;;;;;5.63;1.75;;;20.50;99.90;;;;;;5039951;28;20327;-78
2023/08/09 09:40:57;;;;;;;4.05;1.10;;;21.00;99.90;;;;;;5039728;28;20745;-79
2023/08/09 09:43:24;;;;;;;4.65;1.42;;;21.50;99.90;;;;;;5042896;28;20252;-78
2023/08/09 09:45:54;;;;;;;4.30;1.25;;;22.00;99.90;;;;;;5041017;28;20224;-78
2023/08/09 09:48:21;;;;;;;3.10;1.10;;;22.40;99.90;;;;;;5044401;28;20232;-79
2023/08/09 09:50:49;;;;;;;2.78;1.23;;;22.80;99.90;;;;;;5043697;28;20216;-78
2023/08/09 09:53:16;;;;;;;3.53;1.20;;;23.00;99.90;;;;;;5041625;28;20232;-79
2023/08/09 09:55:44;;;;;;;4.10;1.48;;;23.20;99.20;;;;;;5044477;28;20216;-78
2023/08/09 09:58:13;;;;;;;3.38;1.35;;;23.40;98.80;;;;;;5043333;28;20228;-78
2023/08/09 10:00:44;;;;;;;2.95;1.23;;;23.60;98.60;;;;;;5040396;28;20634;-79
2023/08/09 10:03:13;;;;;;;4.50;1.20;;;23.90;98.20;;;;;;5038959;28;20416;-79
2023/08/09 10:05:42;;;;;;;4.88;1.40;;;24.10;97.80;;;;;;5042898;28;20232;-79
2023/08/09 10:08:10;;;;;;;5.30;1.67;;;24.30;96.30;;;;;;5043340;28;20223;-79
2023/08/09 10:10:38;;;;;;;4.90;1.75;;;24.40;96.20;;;;;;5041890;28;20220;-79
2023/08/09 10:13:09;;;;;;;4.38;1.50;;;24.60;95.90;;;;;;5041227;28;20702;-79
2023/08/09 10:15:46;;;;;;;7.10;1.52;;;24.70;95.20;;;;;;5041136;28;20220;-79
2023/08/09 10:18:18;;;;;;;3.85;1.15;;;24.90;94.60;;;;;;5042042;28;20889;-79
2023/08/09 10:20:50;;;;;;;5.15;1.80;;;25.00;94.20;;;;;;5045036;28;20577;-79
2023/08/09 10:23:21;;;;;;;3.22;1.40;;;24.90;93.80;;;;;;5044146;28;20246;-79
2023/08/09 10:25:50;;;;;;;2.30;1.20;;;24.90;93.60;;;;;;5039831;28;20224;-79
2023/08/09 10:28:19;;;;;;;4.63;1.55;;;24.80;93.90;;;;;;5041132;28;20228;-78
2023/08/09 10:30:48;;;;;;;3.83;1.65;;;24.80;94.00;;;;;;5042164;28;20312;-79
2023/08/09 10:33:18;;;;;;;4.45;1.40;;;24.80;94.10;;;;;;5044619;28;20224;-79
2023/08/09 10:35:51;;;;;;;3.88;1.50;;;24.90;94.30;;;;;;5037855;28;20219;-79
2023/08/09 10:38:19;;;;;;;4.40;1.23;;;25.10;93.40;;;;;;5038703;28;20224;-79
2023/08/09 10:40:51;;;;;;;2.97;1.25;;;25.30;92.40;;;;;;5040715;28;20216;-79
2023/08/09 10:43:21;;;;;;;2.45;1.10;;;25.60;91.80;;;;;;5046368;28;20220;-79
2023/08/09 10:45:49;;;;;;;3.35;1.30;;;25.70;91.00;;;;;;5052668;28;20228;-79
2023/08/09 10:48:23;;;;;;;3.33;1.23;;;25.90;90.80;;;;;;5041928;28;20219;-79
2023/08/09 10:51:17;;;;;;;2.78;1.20;;;25.90;87.80;;;;;;5039415;28;20220;-79
2023/08/09 10:53:52;;;;;;;3.15;1.30;;;25.70;86.10;;;;;;5044330;28;20224;-79
2023/08/09 10:56:30;;;;;;;3.92;1.33;;;25.30;86.70;;;;;;5039632;28;20330;-79
2023/08/09 10:59:05;;;;;;;4.70;1.70;;;24.90;88.00;;;;;;5042186;28;20224;-79
2023/08/09 11:01:32;;;;;;;2.75;1.33;;;24.40;88.80;;;;;;5039148;28;20521;-79
2023/08/09 11:03:59;;;;;;;4.05;1.80;;;23.90;89.90;;;;;;5042799;28;20251;-79
2023/08/09 11:06:33;;;;;;;4.35;1.45;;;23.60;90.90;;;;;;5038859;28;20270;-79
2023/08/09 11:09:06;;;;;;;4.40;1.35;;;23.40;91.20;;;;;;5042839;28;20243;-79
2023/08/09 11:11:34;;;;;;;5.43;1.40;;;23.40;91.00;;;;;;5040317;28;20224;-79
2023/08/09 11:14:02;;;;;;;4.32;1.35;;;23.50;92.00;;;;;;5041072;28;20474;-79
2023/08/09 11:16:29;;;;;;;4.70;1.60;;;23.70;91.70;;;;;;5041853;28;20224;-79
2023/08/09 11:19:03;;;;;;;7.22;1.20;;;24.00;90.80;;;;;;5041542;28;20223;-79
2023/08/09 11:21:38;;;;;;;3.58;1.38;;;24.20;88.60;;;;;;5041658;28;20212;-79
2023/08/09 11:24:07;;;;;;;4.03;1.52;;;24.30;86.40;;;;;;5040226;28;20423;-80
2023/08/09 11:26:34;;;;;;;3.22;1.23;;;24.40;85.40;;;;;;5040273;28;20410;-79
2023/08/09 11:29:03;;;;;;;6.40;1.63;;;24.40;85.30;;;;;;5038700;28;20383;-79
2023/08/09 11:31:32;;;;;;;3.00;1.20;;;24.50;84.70;;;;;;5035805;28;20238;-79
2023/08/09 11:33:59;;;;;;;6.03;1.30;;;24.60;84.60;;;;;;5041261;28;20275;-79
2023/08/09 11:36:29;;;;;;;4.45;1.25;;;24.70;85.00;;;;;;5042437;28;20386;-79
2023/08/09 11:38:56;;;;;;;3.13;1.20;;;24.70;84.00;;;;;;5038666;28;20224;-79
2023/08/09 11:41:24;;;;;;;3.85;1.20;;;24.90;82.70;;;;;;5040948;28;20540;-79
2023/08/09 11:43:51;;;;;;;3.90;1.17;;;25.00;81.00;;;;;;5044870;28;20227;-79
2023/08/09 11:46:22;;;;;;;3.38;1.17;;;25.00;82.00;;;;;;5044097;28;20666;-79
2023/08/09 11:48:51;;;;;;;3.80;1.23;;;25.00;79.00;;;;;;5048239;28;20212;-79
2023/08/09 11:51:19;;;;;;;5.05;1.50;;;24.90;80.40;;;;;;5046127;28;20716;-79
2023/08/09 11:53:48;;;;;;;2.97;1.20;;;24.60;81.20;;;;;;5046350;28;20226;-79
2023/08/09 11:56:18;;;;;;;4.38;1.10;;;24.30;82.60;;;;;;5042791;28;20224;-79
2023/08/09 11:58:46;;;;;;;1.92;1.00;;;23.90;83.80;;;;;;5046851;28;20320;-79
2023/08/09 12:01:14;;;;;;;4.72;1.20;;;23.50;85.80;;;;;;5041252;28;20223;-79
2023/08/09 12:03:44;;;;;;;3.28;1.20;;;23.10;87.80;;;;;;5046726;28;20228;-79
2023/08/09 12:06:10;;;;;;;2.65;1.13;;;22.80;88.00;;;;;;5043286;28;20552;-79
2023/08/09 12:08:38;;;;;;;3.80;1.10;;;22.60;89.70;;;;;;5053860;28;20953;-79
2023/08/09 12:11:05;;;;;;;4.38;1.13;;;22.50;90.40;;;;;;5040763;28;20227;-79
2023/08/09 12:13:32;;;;;;;3.50;1.35;;;22.40;90.60;;;;;;5040433;28;20737;-79
2023/08/09 12:16:00;;;;;;;4.97;1.65;;;22.30;90.80;;;;;;5044220;28;20212;-79
2023/08/09 12:18:27;;;;;;;4.55;1.30;;;22.30;91.50;;;;;;5042152;28;20639;-80
2023/08/09 12:20:56;;;;;;;4.30;1.20;;;22.30;91.80;;;;;;5045601;28;20486;-79
2023/08/09 12:23:22;;;;;;;5.68;1.30;;;22.20;91.70;;;;;;5042984;28;20220;-79
2023/08/09 12:25:49;;;;;;;3.20;1.55;;;22.10;93.80;;;;;;5045817;28;20435;-79
2023/08/09 12:28:16;;;;;;;4.10;1.50;;;21.90;94.00;;;;;;5041305;28;20227;-79
2023/08/09 12:30:44;;;;;;;3.35;1.30;;;21.60;94.20;;;;;;5045178;28;20212;-79
2023/08/09 12:33:11;;;;;;;4.15;1.33;;;21.30;93.70;;;;;;5042272;28;20439;-79
2023/08/09 12:35:37;;;;;;;1.67;0.85;;;21.00;94.60;;;;;;5041353;28;20324;-79
2023/08/09 12:38:05;;;;;;;2.70;1.07;;;20.60;94.80;;;;;;5045538;28;20234;-79
2023/08/09 12:40:32;;;;;;;2.50;1.25;;;20.30;94.90;;;;;;5042155;28;20220;-79
2023/08/09 12:42:59;;;;;;;3.30;1.08;;;20.10;95.20;;;;;;5042335;28;20254;-79
2023/08/09 12:45:25;;;;;;;2.75;1.10;;;20.00;95.20;;;;;;5037020;28;20747;-80
2023/08/09 12:47:52;;;;;;;3.17;1.08;;;19.90;95.00;;;;;;5037040;28;20216;-79
2023/08/09 12:50:20;;;;;;;2.65;0.90;;;20.00;95.10;;;;;;5040320;28;20283;-79
2023/08/09 12:52:46;;;;;;;1.98;0.77;;;20.10;95.00;;;;;;5040371;28;20220;-79